Time;durP1;ratioP1;P1;durP2;ratioP2;P2;SDS_P1;SDS_P2;PMS_P1;PMS_P2;Temp;Humidity;BMP_temperature;BMP_pressure;BME280_temperature;BME280_humidity;BME280_pressure;Samples;Min_cycle;Max_cycle;Signal;HPM_P1;HPM_P2
2022/08/30 00:02:09;;;;;;;1.90;1.47;;;15.40;99.90;;;;;;4863763;29;20247;-49
2022/08/30 00:04:37;;;;;;;3.70;1.50;;;15.40;99.90;;;;;;4863452;29;20262;-52
2022/08/30 00:07:07;;;;;;;1.80;1.47;;;15.40;99.90;;;;;;4862825;29;20633;-51
2022/08/30 00:09:35;;;;;;;1.67;1.50;;;15.40;99.90;;;;;;4859775;29;20726;-51
2022/08/30 00:12:04;;;;;;;1.40;1.30;;;15.40;99.90;;;;;;4864520;29;20226;-53
2022/08/30 00:14:32;;;;;;;2.67;1.50;;;15.40;99.90;;;;;;4863545;29;20234;-51
2022/08/30 00:17:00;;;;;;;1.90;1.50;;;15.40;99.90;;;;;;4863120;29;20235;-53
2022/08/30 00:19:28;;;;;;;2.57;1.50;;;15.40;99.90;;;;;;4862705;29;20318;-51
2022/08/30 00:21:56;;;;;;;4.43;1.60;;;15.40;99.90;;;;;;4866627;29;20731;-52
2022/08/30 00:24:26;;;;;;;2.70;1.47;;;15.40;99.90;;;;;;4867275;29;20360;-50
2022/08/30 00:26:54;;;;;;;2.37;1.40;;;15.40;99.90;;;;;;4866498;29;20595;-52
2022/08/30 00:29:22;;;;;;;2.73;1.47;;;15.40;99.90;;;;;;4849361;29;20238;-50
2022/08/30 00:31:50;;;;;;;2.47;1.30;;;15.40;99.90;;;;;;4867138;29;20254;-48
2022/08/30 00:34:18;;;;;;;1.83;1.43;;;15.40;99.90;;;;;;4867985;29;20260;-51
2022/08/30 00:36:46;;;;;;;2.33;1.43;;;15.40;99.90;;;;;;4865504;29;20234;-51
2022/08/30 00:39:14;;;;;;;2.30;1.50;;;15.40;99.90;;;;;;4866599;29;20240;-50
2022/08/30 00:41:44;;;;;;;2.10;1.43;;;15.40;99.90;;;;;;4867725;29;20230;-52
2022/08/30 00:44:12;;;;;;;2.73;1.50;;;15.50;99.90;;;;;;4865255;29;20218;-50
2022/08/30 00:46:40;;;;;;;2.27;1.40;;;15.50;99.90;;;;;;4867267;29;20253;-50
2022/08/30 00:49:12;;;;;;;2.20;1.50;;;15.50;99.90;;;;;;4867408;29;20238;-49
2022/08/30 00:51:41;;;;;;;1.97;1.30;;;15.50;99.90;;;;;;4864988;29;20238;-52
2022/08/30 00:54:09;;;;;;;3.33;2.23;;;15.50;99.90;;;;;;4867113;29;20244;-51
2022/08/30 00:56:37;;;;;;;1.93;1.63;;;15.50;99.90;;;;;;4866733;29;20590;-49
2022/08/30 00:59:09;;;;;;;3.57;2.00;;;15.50;99.90;;;;;;4866222;29;20238;-52
2022/08/30 01:01:37;;;;;;;2.07;1.70;;;15.50;99.90;;;;;;4868512;29;20249;-50
2022/08/30 01:04:07;;;;;;;2.70;1.80;;;15.50;99.90;;;;;;4867749;29;20276;-51
2022/08/30 01:06:38;;;;;;;2.20;1.30;;;15.50;99.90;;;;;;4866843;29;20252;-50
2022/08/30 01:09:07;;;;;;;2.77;1.60;;;15.50;99.90;;;;;;4868978;29;20249;-49
2022/08/30 01:11:37;;;;;;;1.50;1.40;;;15.60;99.90;;;;;;4865514;29;20239;-49
2022/08/30 01:14:08;;;;;;;2.27;1.50;;;15.50;99.90;;;;;;4866785;29;20907;-50
2022/08/30 01:16:39;;;;;;;2.20;1.80;;;15.60;99.90;;;;;;4865467;29;20294;-53
2022/08/30 01:19:13;;;;;;;2.53;1.70;;;15.60;99.90;;;;;;4867189;29;20234;-50
2022/08/30 01:21:47;;;;;;;2.00;1.73;;;15.60;99.90;;;;;;4852422;29;20253;-51
2022/08/30 01:24:17;;;;;;;2.90;1.90;;;15.60;99.90;;;;;;4852040;29;20244;-52
2022/08/30 01:26:45;;;;;;;4.40;1.70;;;15.60;99.90;;;;;;4850689;29;20329;-52
2022/08/30 01:29:18;;;;;;;4.37;1.90;;;15.50;99.90;;;;;;4850132;29;20655;-52
2022/08/30 01:31:48;;;;;;;3.13;1.80;;;15.60;99.90;;;;;;4850390;29;20234;-52
2022/08/30 01:34:16;;;;;;;1.83;1.50;;;15.50;99.90;;;;;;4851361;29;20268;-50
2022/08/30 01:36:45;;;;;;;3.93;1.70;;;15.50;99.90;;;;;;4849693;29;20230;-50
2022/08/30 01:39:16;;;;;;;2.97;1.70;;;15.50;99.90;;;;;;4851025;29;20596;-52
2022/08/30 01:41:46;;;;;;;2.63;1.70;;;15.50;99.90;;;;;;4851006;29;20235;-52
2022/08/30 01:44:14;;;;;;;2.30;1.70;;;15.50;99.90;;;;;;4850694;29;20233;-52
2022/08/30 01:46:45;;;;;;;2.70;1.60;;;15.50;99.90;;;;;;4851786;29;20249;-53
2022/08/30 01:49:16;;;;;;;4.50;1.70;;;15.50;99.90;;;;;;4852901;29;20226;-49
2022/08/30 01:51:47;;;;;;;1.63;1.43;;;15.40;99.90;;;;;;4855301;29;20342;-53
2022/08/30 01:54:17;;;;;;;2.00;1.50;;;15.50;99.90;;;;;;4855192;29;20283;-52
2022/08/30 01:56:47;;;;;;;1.60;1.23;;;15.50;99.90;;;;;;4855002;29;20243;-51
2022/08/30 01:59:15;;;;;;;1.97;1.60;;;15.50;99.90;;;;;;4855180;29;20688;-54
2022/08/30 02:01:43;;;;;;;4.43;1.70;;;15.50;99.90;;;;;;4852625;29;20245;-52
2022/08/30 02:04:13;;;;;;;5.77;2.00;;;15.50;99.90;;;;;;4852851;29;20258;-50
2022/08/30 02:06:43;;;;;;;3.30;1.93;;;15.40;99.90;;;;;;4853429;29;20711;-53
2022/08/30 02:09:12;;;;;;;3.23;1.77;;;15.40;99.90;;;;;;4853478;29;20234;-53
2022/08/30 02:11:40;;;;;;;2.43;1.67;;;15.40;99.90;;;;;;4853828;29;20237;-51
2022/08/30 02:14:09;;;;;;;2.67;1.60;;;15.40;99.90;;;;;;4853337;29;20246;-52
2022/08/30 02:16:38;;;;;;;1.90;1.70;;;15.40;99.90;;;;;;4853822;29;20321;-50
2022/08/30 02:19:07;;;;;;;3.03;1.73;;;15.40;99.90;;;;;;4852065;29;20235;-52
2022/08/30 02:21:35;;;;;;;1.67;1.40;;;15.40;99.90;;;;;;4865566;29;20721;-50
2022/08/30 02:24:04;;;;;;;2.97;2.10;;;15.40;99.90;;;;;;4868757;29;20234;-51
2022/08/30 02:26:35;;;;;;;2.17;1.67;;;15.40;99.90;;;;;;4869863;29;20239;-52
2022/08/30 02:29:04;;;;;;;5.63;2.00;;;15.40;99.90;;;;;;4867054;29;20234;-49
2022/08/30 02:31:34;;;;;;;2.20;1.77;;;15.40;99.90;;;;;;4870360;29;20242;-51
2022/08/30 02:34:03;;;;;;;4.23;1.70;;;15.40;99.90;;;;;;4869182;29;20241;-50
2022/08/30 02:36:31;;;;;;;2.37;1.70;;;15.50;99.90;;;;;;4868585;29;20742;-52
2022/08/30 02:38:59;;;;;;;2.43;1.70;;;15.50;99.90;;;;;;4867662;29;20242;-51
2022/08/30 02:41:27;;;;;;;2.00;1.53;;;15.50;99.90;;;;;;4869131;29;21334;-52
2022/08/30 02:43:57;;;;;;;4.43;1.70;;;15.50;99.90;;;;;;4870455;29;20724;-52
2022/08/30 02:46:25;;;;;;;2.43;1.90;;;15.50;99.90;;;;;;4869348;29;20231;-52
2022/08/30 02:49:01;;;;;;;4.50;1.57;;;15.50;99.90;;;;;;4870103;29;20233;-49
2022/08/30 02:51:50;;;;;;;2.50;1.70;;;15.50;99.90;;;;;;4869365;29;20246;-52
2022/08/30 02:54:19;;;;;;;2.60;1.77;;;15.50;99.90;;;;;;4868406;29;20733;-50
2022/08/30 02:56:47;;;;;;;2.93;1.50;;;15.50;99.90;;;;;;4867540;29;20246;-49
2022/08/30 02:59:16;;;;;;;2.90;1.60;;;15.50;99.90;;;;;;4868201;29;20230;-52
2022/08/30 03:01:44;;;;;;;2.57;1.60;;;15.50;99.90;;;;;;4869352;29;20229;-54
2022/08/30 03:04:14;;;;;;;3.00;1.50;;;15.50;99.90;;;;;;4868674;29;20237;-49
2022/08/30 03:06:42;;;;;;;2.87;2.00;;;15.50;99.90;;;;;;4869006;29;20245;-51
2022/08/30 03:09:10;;;;;;;3.10;1.47;;;15.60;99.90;;;;;;4868482;29;20246;-50
2022/08/30 03:11:39;;;;;;;3.90;1.67;;;15.50;99.90;;;;;;4868483;29;20305;-51
2022/08/30 03:14:07;;;;;;;2.00;1.57;;;15.50;99.90;;;;;;4868265;29;20242;-51
2022/08/30 03:16:35;;;;;;;3.53;1.83;;;15.60;99.90;;;;;;4869185;29;20243;-53
2022/08/30 03:19:03;;;;;;;3.00;1.47;;;15.50;99.90;;;;;;4868073;29;20245;-51
2022/08/30 03:21:33;;;;;;;1.43;1.33;;;15.50;99.90;;;;;;4867469;29;20249;-50
2022/08/30 03:24:01;;;;;;;2.60;1.40;;;15.50;99.90;;;;;;4869696;29;20257;-52
2022/08/30 03:26:29;;;;;;;1.93;1.80;;;15.50;99.90;;;;;;4868849;29;20309;-51
2022/08/30 03:28:58;;;;;;;4.47;1.80;;;15.50;99.90;;;;;;4867467;29;20345;-53
2022/08/30 03:31:27;;;;;;;2.80;1.63;;;15.50;99.90;;;;;;4867549;29;20244;-53
2022/08/30 03:33:55;;;;;;;3.03;1.60;;;15.50;99.90;;;;;;4868585;29;20722;-50
2022/08/30 03:36:23;;;;;;;3.17;1.47;;;15.50;99.90;;;;;;4867688;29;20808;-52
2022/08/30 03:38:53;;;;;;;3.03;1.80;;;15.50;99.90;;;;;;4866319;29;20226;-50
2022/08/30 03:41:21;;;;;;;2.77;1.73;;;15.50;99.90;;;;;;4868434;29;20309;-50
2022/08/30 03:43:50;;;;;;;4.93;2.10;;;15.50;99.90;;;;;;4871205;29;20246;-49
2022/08/30 03:46:26;;;;;;;3.23;1.83;;;15.50;99.90;;;;;;4868632;29;20395;-51
2022/08/30 03:48:56;;;;;;;3.17;2.03;;;15.50;99.90;;;;;;4867698;29;20239;-53
2022/08/30 03:51:24;;;;;;;3.23;1.80;;;15.50;99.90;;;;;;4867918;29;20238;-51
2022/08/30 03:53:54;;;;;;;4.63;1.90;;;15.50;99.90;;;;;;4868339;29;20257;-52
2022/08/30 03:56:23;;;;;;;3.40;1.93;;;15.50;99.90;;;;;;4867959;29;20252;-53
2022/08/30 03:58:51;;;;;;;3.23;1.70;;;15.50;99.90;;;;;;4866818;29;20242;-52
2022/08/30 04:01:19;;;;;;;3.33;2.17;;;15.50;99.90;;;;;;4864675;29;20252;-52
2022/08/30 04:03:47;;;;;;;2.57;1.63;;;15.50;99.90;;;;;;4866431;29;20264;-50
2022/08/30 04:06:16;;;;;;;2.37;1.67;;;15.50;99.90;;;;;;4870073;29;20230;-50
2022/08/30 04:08:44;;;;;;;3.00;1.60;;;15.50;99.90;;;;;;4867250;29;20248;-49
2022/08/30 04:11:15;;;;;;;2.10;1.90;;;15.50;99.90;;;;;;4867556;29;20322;-53
2022/08/30 04:13:43;;;;;;;2.13;1.80;;;15.50;99.90;;;;;;4869067;29;20250;-50
2022/08/30 04:16:12;;;;;;;3.10;2.17;;;15.50;99.90;;;;;;4867445;29;20318;-49
2022/08/30 04:18:40;;;;;;;1.80;1.57;;;15.50;99.90;;;;;;4867087;29;20238;-53
2022/08/30 04:21:08;;;;;;;3.77;2.00;;;15.50;99.90;;;;;;4856935;29;20251;-51
2022/08/30 04:23:41;;;;;;;1.97;1.40;;;15.50;99.90;;;;;;4851306;29;20235;-50
2022/08/30 04:26:09;;;;;;;2.27;1.90;;;15.50;99.90;;;;;;4851246;29;20238;-50
2022/08/30 04:28:39;;;;;;;2.77;1.83;;;15.50;99.90;;;;;;4851973;29;20235;-50
2022/08/30 04:31:11;;;;;;;2.83;1.60;;;15.50;99.90;;;;;;4850714;29;20252;-50
2022/08/30 04:33:42;;;;;;;1.83;1.63;;;15.50;99.90;;;;;;4851020;29;20249;-50
2022/08/30 04:36:12;;;;;;;3.10;1.87;;;15.50;99.90;;;;;;4850272;29;20292;-50
2022/08/30 04:38:41;;;;;;;1.83;1.70;;;15.50;99.90;;;;;;4849605;29;20241;-52
2022/08/30 04:41:11;;;;;;;2.63;1.80;;;15.50;99.90;;;;;;4852343;29;21221;-54
2022/08/30 04:43:40;;;;;;;2.60;1.83;;;15.50;99.90;;;;;;4852017;29;20252;-51
2022/08/30 04:46:09;;;;;;;4.07;1.60;;;15.50;99.90;;;;;;4852287;29;20231;-52
2022/08/30 04:48:38;;;;;;;1.90;1.70;;;15.50;99.90;;;;;;4851596;29;20238;-52
2022/08/30 04:51:08;;;;;;;3.87;1.93;;;15.50;99.90;;;;;;4857822;29;20743;-53
2022/08/30 04:53:36;;;;;;;2.53;1.93;;;15.50;99.90;;;;;;4851730;29;20235;-51
2022/08/30 04:56:08;;;;;;;4.43;1.90;;;15.50;99.90;;;;;;4850474;29;20242;-52
2022/08/30 04:58:36;;;;;;;4.93;2.23;;;15.60;99.90;;;;;;4850802;29;20786;-51
2022/08/30 05:01:11;;;;;;;3.50;1.87;;;15.60;99.90;;;;;;4849676;29;20246;-50
2022/08/30 05:03:41;;;;;;;2.17;1.90;;;15.60;99.90;;;;;;4852175;29;21048;-52
2022/08/30 05:06:11;;;;;;;2.17;1.73;;;15.60;99.90;;;;;;4850086;29;20237;-52
2022/08/30 05:08:39;;;;;;;2.73;1.73;;;15.60;99.90;;;;;;4850063;29;20741;-52
2022/08/30 05:11:14;;;;;;;2.70;1.90;;;15.60;99.90;;;;;;4850206;29;20239;-53
2022/08/30 05:13:43;;;;;;;4.53;2.30;;;15.70;99.90;;;;;;4849382;29;20332;-50
2022/08/30 05:16:16;;;;;;;3.43;2.00;;;15.70;99.90;;;;;;4850178;29;20246;-52
2022/08/30 05:18:45;;;;;;;4.80;2.00;;;15.60;99.90;;;;;;4851011;29;20266;-50
2022/08/30 05:21:15;;;;;;;2.60;1.70;;;15.70;99.90;;;;;;4850420;29;20251;-51
2022/08/30 05:23:44;;;;;;;3.53;2.13;;;15.60;99.90;;;;;;4850926;29;20235;-52
2022/08/30 05:26:14;;;;;;;3.20;1.90;;;15.60;99.90;;;;;;4851193;29;20234;-52
2022/08/30 05:28:42;;;;;;;3.30;1.90;;;15.60;99.90;;;;;;4849845;29;20254;-51
2022/08/30 05:31:17;;;;;;;2.33;2.00;;;15.60;99.90;;;;;;4849069;29;20243;-53
2022/08/30 05:33:46;;;;;;;3.90;2.00;;;15.60;99.90;;;;;;4849964;29;20349;-53
2022/08/30 05:36:17;;;;;;;3.00;1.67;;;15.60;99.90;;;;;;4850233;29;20317;-50
2022/08/30 05:38:45;;;;;;;4.07;1.67;;;15.60;99.90;;;;;;4847202;29;20257;-50
2022/08/30 05:41:13;;;;;;;3.67;2.03;;;15.70;99.90;;;;;;4850798;29;20711;-49
2022/08/30 05:43:42;;;;;;;2.10;1.90;;;15.60;99.90;;;;;;4851662;29;20719;-50
2022/08/30 05:46:17;;;;;;;3.60;1.97;;;15.60;99.90;;;;;;4849840;29;20313;-50
2022/08/30 05:48:49;;;;;;;2.50;1.40;;;15.70;99.90;;;;;;4850898;29;20287;-51
2022/08/30 05:51:19;;;;;;;2.70;1.53;;;15.70;99.90;;;;;;4849559;29;20249;-52
2022/08/30 05:53:48;;;;;;;2.60;1.50;;;15.80;99.90;;;;;;4850947;29;20234;-52
2022/08/30 05:56:19;;;;;;;2.00;1.77;;;15.90;99.90;;;;;;4850809;29;20262;-53
2022/08/30 05:58:48;;;;;;;2.90;1.90;;;16.00;99.90;;;;;;4851382;29;20238;-50
2022/08/30 06:01:21;;;;;;;2.73;1.80;;;16.10;99.90;;;;;;4848156;29;20253;-51
2022/08/30 06:03:51;;;;;;;2.83;1.40;;;16.10;99.90;;;;;;4850112;29;20336;-49
2022/08/30 06:06:19;;;;;;;2.07;1.87;;;16.10;99.90;;;;;;4851644;29;20238;-52
2022/08/30 06:08:48;;;;;;;1.70;1.53;;;16.20;99.90;;;;;;4849483;29;20235;-50
2022/08/30 06:11:19;;;;;;;3.93;1.80;;;16.20;99.90;;;;;;4849351;29;20241;-52
2022/08/30 06:13:47;;;;;;;2.10;1.57;;;16.20;99.90;;;;;;4857991;29;20245;-50
2022/08/30 06:16:18;;;;;;;2.47;1.60;;;16.30;99.90;;;;;;4850387;29;20245;-51
2022/08/30 06:18:47;;;;;;;2.43;1.70;;;16.30;99.90;;;;;;4849371;29;21513;-50
2022/08/30 06:21:18;;;;;;;4.03;1.77;;;16.40;99.90;;;;;;4854049;29;20252;-53
2022/08/30 06:23:46;;;;;;;2.87;1.83;;;16.40;99.90;;;;;;4851229;29;20337;-51
2022/08/30 06:26:15;;;;;;;3.37;1.50;;;16.40;99.90;;;;;;4851744;29;20240;-52
2022/08/30 06:28:44;;;;;;;3.17;1.53;;;16.40;99.90;;;;;;4851232;29;20230;-51
2022/08/30 06:31:14;;;;;;;3.70;1.60;;;16.50;99.90;;;;;;4849638;29;20254;-50
2022/08/30 06:33:43;;;;;;;1.63;1.53;;;16.50;99.90;;;;;;4853452;29;20238;-51
2022/08/30 06:36:18;;;;;;;2.63;1.80;;;16.60;99.90;;;;;;4859688;29;20242;-52
2022/08/30 06:38:47;;;;;;;2.47;1.73;;;16.60;99.90;;;;;;4864066;29;20240;-52
2022/08/30 06:41:18;;;;;;;3.00;1.83;;;16.70;99.90;;;;;;4858278;29;20742;-49
2022/08/30 06:43:46;;;;;;;2.77;1.70;;;16.70;99.90;;;;;;4854872;29;21270;-50
2022/08/30 06:46:19;;;;;;;1.80;1.70;;;16.80;99.90;;;;;;4857195;29;20342;-52
2022/08/30 06:48:47;;;;;;;1.73;1.63;;;16.90;99.90;;;;;;4855694;29;20706;-52
2022/08/30 06:51:20;;;;;;;3.93;2.10;;;16.90;99.90;;;;;;4856783;29;20635;-52
2022/08/30 06:53:48;;;;;;;3.30;1.80;;;17.00;99.90;;;;;;4859999;29;20321;-50
2022/08/30 06:56:18;;;;;;;2.80;1.63;;;17.00;99.90;;;;;;4858554;29;20265;-50
2022/08/30 06:58:47;;;;;;;3.03;1.70;;;17.10;99.90;;;;;;4855762;29;20250;-52
2022/08/30 07:01:18;;;;;;;2.97;1.50;;;17.10;99.90;;;;;;4856784;29;20249;-51
2022/08/30 07:03:46;;;;;;;2.33;1.50;;;17.10;99.90;;;;;;4853881;29;20239;-52
2022/08/30 07:06:14;;;;;;;2.37;1.50;;;17.10;99.90;;;;;;4852869;29;20244;-53
2022/08/30 07:08:49;;;;;;;2.60;1.73;;;17.20;99.90;;;;;;4852799;29;20303;-49
2022/08/30 07:11:28;;;;;;;3.27;1.73;;;17.20;99.90;;;;;;4853947;29;20270;-52
2022/08/30 07:13:58;;;;;;;4.30;2.07;;;17.20;99.90;;;;;;4855455;29;20279;-51
2022/08/30 07:16:26;;;;;;;3.40;2.00;;;17.20;99.90;;;;;;4864985;29;20243;-50
2022/08/30 07:18:54;;;;;;;2.93;1.83;;;17.20;99.90;;;;;;4863641;29;20293;-51
2022/08/30 07:21:26;;;;;;;2.70;1.60;;;17.30;99.90;;;;;;4870725;29;20272;-52
2022/08/30 07:23:58;;;;;;;2.70;1.40;;;17.30;99.90;;;;;;4889715;29;20242;-50
2022/08/30 07:26:28;;;;;;;2.67;1.50;;;17.40;99.90;;;;;;4888599;29;20598;-52
2022/08/30 07:28:56;;;;;;;2.53;1.80;;;17.50;99.90;;;;;;4889653;29;20238;-51
2022/08/30 07:31:25;;;;;;;2.53;1.43;;;17.60;99.90;;;;;;4890748;29;20253;-52
2022/08/30 07:33:53;;;;;;;3.87;1.90;;;17.60;99.90;;;;;;4889583;29;20332;-50
2022/08/30 07:36:23;;;;;;;2.53;1.50;;;17.60;99.90;;;;;;4870307;29;20244;-50
2022/08/30 07:38:52;;;;;;;1.53;1.37;;;17.70;99.90;;;;;;4876035;29;20759;-53
2022/08/30 07:41:24;;;;;;;2.27;1.23;;;17.70;99.90;;;;;;4875868;29;20266;-53
2022/08/30 07:43:53;;;;;;;1.87;1.40;;;17.80;99.90;;;;;;4875951;29;20245;-53
2022/08/30 07:46:22;;;;;;;3.63;1.50;;;17.80;99.90;;;;;;4874377;29;20269;-51
2022/08/30 07:48:50;;;;;;;2.70;1.20;;;17.80;99.90;;;;;;4872908;29;20238;-52
2022/08/30 07:51:20;;;;;;;1.40;1.20;;;17.90;99.90;;;;;;4875113;29;20258;-51
2022/08/30 07:53:49;;;;;;;1.90;1.30;;;17.90;99.90;;;;;;4873481;29;20246;-53
2022/08/30 07:56:17;;;;;;;4.23;1.50;;;17.90;99.90;;;;;;4875776;29;20243;-50
2022/08/30 07:58:47;;;;;;;3.83;1.70;;;18.00;99.90;;;;;;4873104;29;20712;-50
2022/08/30 08:01:17;;;;;;;1.87;1.43;;;18.00;99.90;;;;;;4874444;29;20298;-52
2022/08/30 08:03:45;;;;;;;2.20;1.40;;;18.10;99.90;;;;;;4875572;29;20263;-52
2022/08/30 08:06:16;;;;;;;1.80;1.50;;;18.10;99.90;;;;;;4875201;29;20237;-52
2022/08/30 08:08:45;;;;;;;2.53;1.53;;;18.20;99.90;;;;;;4875483;29;20234;-52
2022/08/30 08:11:17;;;;;;;1.30;1.20;;;18.30;99.90;;;;;;4875545;29;20244;-54
2022/08/30 08:13:49;;;;;;;5.20;1.70;;;18.30;99.90;;;;;;4875046;29;20239;-51
2022/08/30 08:16:25;;;;;;;2.33;1.57;;;18.40;99.90;;;;;;4874941;29;20965;-53
2022/08/30 08:18:54;;;;;;;2.97;1.53;;;18.40;99.90;;;;;;4854645;29;20382;-51
2022/08/30 08:21:24;;;;;;;1.70;1.40;;;18.40;99.90;;;;;;4886254;29;20258;-52
2022/08/30 08:23:53;;;;;;;3.00;1.50;;;18.50;99.90;;;;;;4887140;29;20240;-51
2022/08/30 08:26:23;;;;;;;1.73;1.60;;;18.50;99.90;;;;;;4882050;29;20720;-53
2022/08/30 08:28:53;;;;;;;4.47;1.60;;;18.60;99.90;;;;;;4890387;29;20314;-53
2022/08/30 08:31:24;;;;;;;2.73;1.47;;;18.60;99.90;;;;;;4888618;29;20244;-52
2022/08/30 08:34:01;;;;;;;1.87;1.50;;;18.50;99.90;;;;;;4888820;29;20243;-53
2022/08/30 08:36:32;;;;;;;2.37;1.70;;;18.60;99.90;;;;;;4888692;29;20712;-53
2022/08/30 08:39:01;;;;;;;3.10;1.50;;;18.50;99.90;;;;;;4888094;29;20248;-51
2022/08/30 08:41:41;;;;;;;3.27;1.30;;;18.50;99.90;;;;;;4889171;29;20244;-50
2022/08/30 08:44:17;;;;;;;2.67;1.50;;;18.50;99.90;;;;;;4887921;29;20699;-52
2022/08/30 08:46:56;;;;;;;4.97;1.70;;;18.50;99.90;;;;;;4888860;29;20291;-50
2022/08/30 08:49:25;;;;;;;2.23;1.50;;;18.50;99.90;;;;;;4886598;29;20299;-51
2022/08/30 08:54:46;;;;;;;3.03;1.20;;;18.60;99.90;;;;;;4875433;29;20799;-52
2022/08/30 08:57:14;;;;;;;2.20;1.53;;;18.70;99.90;;;;;;4873077;29;20249;-52
2022/08/30 08:59:45;;;;;;;2.80;1.20;;;18.80;99.90;;;;;;4872786;29;20235;-49
2022/08/30 09:02:23;;;;;;;2.17;1.60;;;19.00;99.90;;;;;;4874110;29;20234;-51
2022/08/30 09:04:57;;;;;;;2.33;1.43;;;19.20;99.90;;;;;;4874512;29;20589;-53
2022/08/30 09:07:30;;;;;;;2.37;1.47;;;19.60;99.90;;;;;;4874057;29;20343;-51
2022/08/30 09:09:59;;;;;;;2.27;1.40;;;19.90;99.90;;;;;;4872365;29;20272;-51
2022/08/30 09:12:28;;;;;;;1.67;1.47;;;20.10;99.90;;;;;;4887264;29;20605;-52
2022/08/30 09:15:09;;;;;;;2.33;1.33;;;20.20;99.90;;;;;;4889541;29;20367;-52
2022/08/30 09:17:51;;;;;;;3.80;1.37;;;20.30;99.90;;;;;;4888903;29;20252;-53
2022/08/30 09:20:32;;;;;;;1.50;1.40;;;20.50;99.90;;;;;;4887964;29;20334;-51
2022/08/30 09:23:20;;;;;;;1.80;1.50;;;20.60;99.90;;;;;;4888194;29;20232;-53
2022/08/30 09:25:52;;;;;;;2.37;1.40;;;20.80;99.90;;;;;;4878032;29;20247;-50
2022/08/30 09:28:24;;;;;;;3.73;1.20;;;20.90;99.90;;;;;;4871509;29;20764;-50
2022/08/30 09:31:03;;;;;;;2.57;1.23;;;20.90;99.90;;;;;;4873033;29;20327;-50
2022/08/30 09:33:36;;;;;;;3.60;1.43;;;20.90;99.90;;;;;;4871491;29;20714;-52
2022/08/30 09:36:20;;;;;;;2.20;1.30;;;21.00;99.90;;;;;;4871793;29;20765;-52
2022/08/30 09:38:58;;;;;;;1.70;1.43;;;20.80;99.90;;;;;;4870235;29;20739;-51
2022/08/30 09:41:37;;;;;;;1.80;1.40;;;20.80;99.90;;;;;;4877844;29;20247;-52
2022/08/30 09:44:09;;;;;;;2.47;1.20;;;21.00;99.90;;;;;;4876294;29;20237;-51
2022/08/30 09:46:50;;;;;;;2.43;1.30;;;21.20;99.90;;;;;;4870665;29;20248;-50
2022/08/30 09:49:31;;;;;;;1.90;1.60;;;21.10;99.90;;;;;;4870308;29;20226;-50
2022/08/30 09:52:11;;;;;;;2.60;1.60;;;21.30;99.90;;;;;;4870688;29;20242;-52
2022/08/30 09:54:48;;;;;;;1.40;1.30;;;21.20;99.90;;;;;;4870723;29;20777;-53
2022/08/30 09:57:29;;;;;;;2.47;1.50;;;21.20;99.90;;;;;;4884248;29;20240;-53
2022/08/30 10:00:05;;;;;;;1.93;1.27;;;21.20;99.90;;;;;;4872809;29;20325;-51
2022/08/30 10:02:43;;;;;;;3.40;1.40;;;21.10;99.90;;;;;;4869970;29;20320;-51
2022/08/30 10:05:18;;;;;;;1.93;1.40;;;21.20;99.90;;;;;;4869312;29;20233;-52
2022/08/30 10:07:55;;;;;;;1.50;1.10;;;21.50;99.90;;;;;;4870104;29;20261;-51
2022/08/30 10:10:34;;;;;;;1.63;1.30;;;21.80;99.90;;;;;;4881566;29;20318;-52
2022/08/30 10:13:34;;;;;;;2.00;1.20;;;21.90;99.90;;;;;;4886712;29;20336;-52
2022/08/30 10:16:11;;;;;;;5.00;1.50;;;22.10;99.90;;;;;;4873678;29;20305;-52
2022/08/30 10:18:54;;;;;;;3.03;1.40;;;21.90;99.90;;;;;;4873025;29;20244;-52
2022/08/30 10:21:30;;;;;;;1.53;1.23;;;21.70;99.90;;;;;;4874254;29;20245;-52
2022/08/30 10:24:02;;;;;;;1.40;1.23;;;21.50;99.90;;;;;;4873430;29;20285;-53
2022/08/30 10:26:36;;;;;;;1.37;0.90;;;21.40;99.90;;;;;;4878501;29;20260;-53
2022/08/30 10:29:10;;;;;;;1.20;1.00;;;21.40;99.90;;;;;;4884555;29;20232;-52
2022/08/30 10:31:44;;;;;;;1.00;0.80;;;21.10;99.90;;;;;;4883774;29;20264;-53
2022/08/30 10:34:19;;;;;;;0.90;0.80;;;21.10;99.90;;;;;;4885325;29;20612;-52
2022/08/30 10:36:54;;;;;;;1.50;0.90;;;21.00;99.90;;;;;;4885938;29;20267;-52
2022/08/30 10:39:27;;;;;;;1.20;0.70;;;21.10;99.90;;;;;;4880034;29;20238;-53
2022/08/30 10:42:05;;;;;;;1.53;0.97;;;21.00;99.90;;;;;;4873315;29;20837;-54
2022/08/30 10:44:39;;;;;;;0.80;0.60;;;21.00;99.90;;;;;;4873569;29;20241;-52
2022/08/30 10:47:18;;;;;;;1.00;0.80;;;21.10;99.90;;;;;;4878561;29;20724;-54
2022/08/30 10:50:00;;;;;;;1.03;0.90;;;20.90;99.90;;;;;;4871440;29;20799;-53
2022/08/30 10:52:36;;;;;;;0.70;0.70;;;21.10;99.90;;;;;;4872812;29;20945;-50
2022/08/30 10:55:11;;;;;;;1.23;0.90;;;21.20;99.90;;;;;;4871806;29;20236;-53
2022/08/30 10:57:40;;;;;;;2.80;0.97;;;21.30;99.90;;;;;;4856739;29;20634;-51
2022/08/30 11:00:13;;;;;;;0.80;0.80;;;21.30;99.90;;;;;;4871520;29;20339;-51
2022/08/30 11:03:20;;;;;;;1.23;0.80;;;21.50;99.90;;;;;;4874664;29;20248;-50
2022/08/30 11:06:19;;;;;;;1.17;0.80;;;22.20;99.90;;;;;;4874259;29;20249;-53
2022/08/30 11:09:15;;;;;;;2.37;0.80;;;22.60;99.90;;;;;;4862348;29;20722;-53
2022/08/30 11:12:16;;;;;;;1.43;1.00;;;23.00;99.90;;;;;;4862934;29;20304;-52
2022/08/30 11:14:46;;;;;;;0.90;0.70;;;23.40;99.90;;;;;;4886534;29;20281;-54
2022/08/30 11:17:29;;;;;;;2.07;0.90;;;23.80;99.90;;;;;;4888911;29;20614;-54
2022/08/30 11:20:00;;;;;;;1.80;0.77;;;23.70;99.90;;;;;;4887078;29;20291;-53
2022/08/30 11:22:33;;;;;;;1.30;0.70;;;23.80;99.90;;;;;;4887606;29;20739;-52
2022/08/30 11:25:11;;;;;;;0.83;0.60;;;24.10;99.90;;;;;;4886392;29;20236;-53
2022/08/30 11:27:47;;;;;;;1.20;0.80;;;24.40;99.90;;;;;;4887119;29;20802;-53
2022/08/30 11:30:50;;;;;;;1.10;0.90;;;24.20;99.90;;;;;;4888258;29;20316;-53
2022/08/30 11:33:31;;;;;;;1.07;0.77;;;24.40;99.90;;;;;;4885900;29;20709;-53
2022/08/30 11:36:00;;;;;;;3.03;0.90;;;24.20;99.90;;;;;;4886206;29;20602;-54
2022/08/30 11:39:03;;;;;;;1.07;0.83;;;24.20;99.90;;;;;;4884357;29;20234;-55
2022/08/30 11:41:38;;;;;;;1.13;0.97;;;24.20;99.90;;;;;;4873290;29;20331;-53
2022/08/30 11:44:30;;;;;;;1.47;0.97;;;24.40;99.90;;;;;;4873328;29;20707;-54
2022/08/30 11:47:00;;;;;;;0.80;0.80;;;24.20;99.90;;;;;;4875534;29;20245;-53
2022/08/30 11:49:52;;;;;;;1.90;0.90;;;23.10;99.90;;;;;;4873167;29;20245;-53
2022/08/30 11:52:40;;;;;;;1.37;1.00;;;23.30;99.90;;;;;;4863920;29;20258;-50
2022/08/30 11:55:36;;;;;;;1.50;1.00;;;23.40;99.90;;;;;;4873710;29;20741;-54
2022/08/30 11:58:20;;;;;;;1.33;0.80;;;23.60;99.90;;;;;;4884355;29;21195;-54
2022/08/30 12:01:16;;;;;;;1.83;0.87;;;24.00;99.90;;;;;;4883435;29;20664;-53
2022/08/30 12:04:09;;;;;;;3.13;1.00;;;24.00;99.90;;;;;;4876642;29;21090;-53
2022/08/30 12:06:53;;;;;;;1.60;1.00;;;23.80;99.90;;;;;;4863309;29;20692;-54
2022/08/30 12:10:04;;;;;;;2.67;1.00;;;23.60;99.90;;;;;;4872125;29;20238;-54
2022/08/30 12:12:49;;;;;;;1.20;1.10;;;23.60;99.90;;;;;;4877937;29;20238;-54
2022/08/30 12:15:57;;;;;;;2.27;0.93;;;24.00;99.90;;;;;;4877074;29;20254;-52
2022/08/30 12:18:40;;;;;;;3.10;1.20;;;24.20;99.90;;;;;;4871868;29;20293;-52
2022/08/30 12:21:26;;;;;;;1.67;0.90;;;23.80;99.90;;;;;;4874286;29;20240;-53
2022/08/30 12:24:02;;;;;;;1.00;0.90;;;23.60;99.90;;;;;;4872103;29;20269;-53
2022/08/30 12:26:35;;;;;;;2.30;1.00;;;23.50;99.90;;;;;;4883184;29;20236;-53
2022/08/30 12:29:11;;;;;;;2.97;1.20;;;23.90;99.90;;;;;;4884850;29;20741;-54
2022/08/30 12:31:43;;;;;;;2.60;1.00;;;24.10;99.90;;;;;;4885205;29;20256;-54
2022/08/30 12:34:21;;;;;;;1.23;0.87;;;23.80;99.90;;;;;;4885305;29;20238;-53
2022/08/30 12:37:02;;;;;;;1.37;0.97;;;23.80;99.90;;;;;;4885259;29;20293;-53
2022/08/30 12:39:35;;;;;;;2.03;0.90;;;23.60;99.90;;;;;;4883090;29;20288;-53
2022/08/30 12:42:13;;;;;;;0.70;0.70;;;23.40;99.90;;;;;;4880519;29;20274;-52
2022/08/30 12:44:46;;;;;;;3.87;0.97;;;23.70;99.90;;;;;;4853750;29;20250;-54
2022/08/30 12:47:22;;;;;;;2.03;0.90;;;23.50;99.90;;;;;;4873305;29;20249;-54
2022/08/30 12:49:54;;;;;;;1.40;0.90;;;22.90;99.90;;;;;;4872043;29;20273;-53
2022/08/30 12:52:31;;;;;;;1.10;0.80;;;23.00;99.90;;;;;;4873112;29;20288;-53
2022/08/30 12:55:11;;;;;;;2.53;1.17;;;23.30;99.90;;;;;;4875713;29;21001;-52
2022/08/30 12:58:16;;;;;;;1.43;1.10;;;23.10;99.90;;;;;;4884384;29;20245;-53
2022/08/30 13:00:47;;;;;;;1.87;0.90;;;22.90;99.90;;;;;;4884433;29;20243;-53
2022/08/30 13:03:29;;;;;;;3.03;1.20;;;22.90;99.90;;;;;;4885481;29;20240;-55
2022/08/30 13:06:00;;;;;;;3.13;1.10;;;23.40;99.90;;;;;;4859255;29;20245;-53
2022/08/30 13:08:35;;;;;;;1.97;0.90;;;23.30;99.90;;;;;;4869996;29;20690;-55
2022/08/30 13:11:08;;;;;;;2.57;1.10;;;23.20;99.90;;;;;;4869723;29;20612;-54
2022/08/30 13:13:39;;;;;;;2.63;0.87;;;23.10;99.90;;;;;;4870214;29;20738;-53
2022/08/30 13:16:27;;;;;;;1.27;1.00;;;23.50;99.90;;;;;;4870433;29;20252;-54
2022/08/30 13:19:24;;;;;;;1.13;1.00;;;23.60;99.90;;;;;;4869379;29;20234;-51
2022/08/30 13:21:57;;;;;;;1.17;1.00;;;23.60;99.90;;;;;;4869756;29;20762;-53